createdAt,value
2019-04-30T00:01:36.241Z,76.70
2019-04-30T00:04:40.204Z,76.60
2019-04-30T00:07:10.323Z,77.00
2019-04-30T00:09:41.976Z,77.10
2019-04-30T00:12:13.404Z,76.80
2019-04-30T00:14:45.123Z,76.70
2019-04-30T00:17:19.635Z,77.20
2019-04-30T00:19:54.534Z,77.40
2019-04-30T00:22:33.235Z,77.40
2019-04-30T00:24:55.629Z,77.60
2019-04-30T00:27:30.121Z,77.20
2019-04-30T00:30:04.517Z,77.20
2019-04-30T00:32:32.200Z,77.60
2019-04-30T00:35:07.281Z,77.50
2019-04-30T00:37:38.231Z,77.40
2019-04-30T00:40:09.780Z,77.50
2019-04-30T00:42:41.137Z,77.20
2019-04-30T00:45:12.698Z,77.20
2019-04-30T00:47:47.778Z,77.30
2019-04-30T00:50:17.652Z,77.80
2019-04-30T00:52:49.306Z,77.40
2019-04-30T00:55:21.988Z,77.40
2019-04-30T00:57:55.784Z,77.80
2019-04-30T01:00:29.709Z,77.40
2019-04-30T01:03:09.990Z,77.20
2019-04-30T01:05:46.455Z,77.00
2019-04-30T01:08:15.487Z,77.00
2019-04-30T01:10:47.878Z,77.40
2019-04-30T01:13:19.663Z,77.40
2019-04-30T01:15:52.613Z,77.60
2019-04-30T01:18:28.546Z,77.40
2019-04-30T01:20:58.667Z,77.60
2019-04-30T01:23:30.483Z,77.70
2019-04-30T01:26:02.585Z,77.70
2019-04-30T01:28:38.542Z,77.40
2019-04-30T01:31:11.764Z,77.70
2019-04-30T01:33:44.514Z,77.50
2019-04-30T01:36:19.738Z,77.80
2019-04-30T01:38:53.002Z,77.80
2019-04-30T01:41:31.414Z,77.50
2019-04-30T01:44:03.716Z,77.40
2019-04-30T01:46:36.759Z,77.60
2019-04-30T01:49:08.725Z,77.20
2019-04-30T01:51:40.494Z,77.90
2019-04-30T01:54:17.955Z,77.60
2019-04-30T01:57:16.890Z,77.50
2019-04-30T02:00:12.870Z,77.40
2019-04-30T02:02:45.694Z,77.20
2019-04-30T02:05:18.824Z,77.80
2019-04-30T02:07:50.903Z,77.70
2019-04-30T02:10:23.751Z,77.50
2019-04-30T02:12:55.388Z,77.60
2019-04-30T02:15:29.244Z,77.80
2019-04-30T02:18:00.956Z,77.70
2019-04-30T02:20:33.118Z,77.60
2019-04-30T02:23:05.713Z,77.80
2019-04-30T02:25:39.810Z,77.80
2019-04-30T02:28:11.483Z,78.30
2019-04-30T02:30:43.322Z,78.10
2019-04-30T02:33:15.528Z,78.00
2019-04-30T02:36:19.812Z,78.00
2019-04-30T02:38:59.509Z,77.90
2019-04-30T02:41:31.968Z,77.80
2019-04-30T02:44:05.052Z,78.10
2019-04-30T02:46:40.691Z,78.40
2019-04-30T02:49:15.385Z,78.30
2019-04-30T02:51:49.923Z,79.10
2019-04-30T02:54:24.829Z,78.90
2019-04-30T02:57:15.116Z,78.90
2019-04-30T03:00:12.475Z,78.80
2019-04-30T03:02:44.296Z,78.90
2019-04-30T03:05:16.349Z,78.70
2019-04-30T03:07:52.963Z,78.90
2019-04-30T03:10:22.307Z,78.90
2019-04-30T03:12:54.277Z,78.90
2019-04-30T03:15:26.233Z,78.70
2019-04-30T03:18:14.845Z,79.10
2019-04-30T03:20:54.607Z,79.10
2019-04-30T03:23:26.193Z,79.00
2019-04-30T03:25:59.757Z,79.10
2019-04-30T03:28:31.697Z,78.90
2019-04-30T03:31:04.831Z,78.70
2019-04-30T03:33:35.550Z,79.10
2019-04-30T03:36:12.627Z,79.10
2019-04-30T03:38:44.008Z,78.60
2019-04-30T03:41:23.015Z,78.60
2019-04-30T03:43:54.625Z,78.40
2019-04-30T03:46:26.349Z,78.10
2019-04-30T03:49:00.055Z,78.10
2019-04-30T03:51:31.079Z,78.20
2019-04-30T03:54:05.286Z,78.20
2019-04-30T03:56:40.022Z,78.30
2019-04-30T03:59:11.716Z,78.00
2019-04-30T04:02:05.271Z,78.40
2019-04-30T04:05:04.606Z,78.50
2019-04-30T04:07:52.474Z,78.40
2019-04-30T04:10:40.377Z,78.50
2019-04-30T04:13:12.527Z,78.70
2019-04-30T04:15:44.615Z,79.00
2019-04-30T04:18:20.002Z,78.70
2019-04-30T04:21:07.077Z,78.60
2019-04-30T04:23:24.584Z,78.90
2019-04-30T04:25:56.243Z,78.60
2019-04-30T04:28:29.972Z,78.40
2019-04-30T04:31:00.410Z,78.60
2019-04-30T04:33:32.594Z,78.80
2019-04-30T04:36:04.507Z,79.00
2019-04-30T04:38:36.173Z,79.00
2019-04-30T04:41:10.387Z,79.00
2019-04-30T04:43:50.470Z,79.10
2019-04-30T04:46:22.470Z,79.20
2019-04-30T04:49:00.534Z,79.10
2019-04-30T04:51:38.670Z,79.20
2019-04-30T04:54:10.312Z,79.50
2019-04-30T04:57:02.770Z,79.30
2019-04-30T04:59:29.854Z,79.70
2019-04-30T05:02:22.530Z,79.50
2019-04-30T05:04:56.849Z,79.70
2019-04-30T05:07:31.302Z,79.60
2019-04-30T05:10:05.545Z,79.80
2019-04-30T05:12:40.628Z,79.40
2019-04-30T05:15:13.023Z,79.30
2019-04-30T05:17:44.989Z,79.30
2019-04-30T05:20:19.474Z,79.50
2019-04-30T05:22:52.051Z,79.50
2019-04-30T05:25:27.335Z,79.70
2019-04-30T05:27:59.301Z,79.80
2019-04-30T05:30:39.337Z,80.20
2019-04-30T05:33:13.059Z,80.00
2019-04-30T05:35:44.538Z,80.30
2019-04-30T05:38:16.092Z,80.20
2019-04-30T05:40:49.562Z,80.20
2019-04-30T05:43:21.264Z,80.30
2019-04-30T05:45:54.388Z,80.20
2019-04-30T05:48:36.796Z,80.20
2019-04-30T05:51:09.016Z,80.20
2019-04-30T05:53:42.790Z,80.20
2019-04-30T05:56:19.186Z,80.60
2019-04-30T05:58:51.881Z,80.60
2019-04-30T06:01:24.379Z,80.80
2019-04-30T06:03:56.492Z,80.80
2019-04-30T06:06:29.159Z,80.80
2019-04-30T06:09:28.622Z,80.70
2019-04-30T06:12:05.642Z,80.80
2019-04-30T06:14:49.054Z,81.20
2019-04-30T06:17:22.433Z,81.50
2019-04-30T06:19:54.692Z,81.40
2019-04-30T06:22:28.787Z,81.20
2019-04-30T06:25:00.977Z,80.70
2019-04-30T06:27:34.061Z,80.80
2019-04-30T06:30:11.840Z,80.70
2019-04-30T06:32:41.224Z,80.60
2019-04-30T06:35:16.384Z,80.60
2019-04-30T06:37:48.852Z,80.80
2019-04-30T06:40:23.168Z,80.90
2019-04-30T06:43:00.411Z,80.90
2019-04-30T06:45:44.724Z,81.00
2019-04-30T06:48:19.753Z,80.80
2019-04-30T06:50:55.889Z,80.90
2019-04-30T06:53:29.114Z,80.80
2019-04-30T06:56:12.286Z,80.10
2019-04-30T07:02:30.622Z,80.30
2019-04-30T07:05:00.544Z,80.30
2019-04-30T07:07:38.657Z,79.80
2019-04-30T07:10:24.688Z,79.60
2019-04-30T07:13:05.764Z,79.80
2019-04-30T07:15:39.450Z,80.20
2019-04-30T07:18:13.201Z,80.20
2019-04-30T07:20:44.858Z,80.30
2019-04-30T07:23:24.976Z,80.30
2019-04-30T07:25:58.981Z,80.20
2019-04-30T07:28:43.702Z,80.30
2019-04-30T07:31:11.675Z,80.60
2019-04-30T07:34:13.901Z,80.40
2019-04-30T07:36:51.498Z,80.50
2019-04-30T07:39:23.470Z,81.10
2019-04-30T07:41:56.063Z,80.50
2019-04-30T07:44:35.465Z,80.10
2019-04-30T07:47:02.132Z,80.30
2019-04-30T07:49:46.889Z,80.30
2019-04-30T07:52:11.073Z,80.60
2019-04-30T07:54:41.503Z,80.90
2019-04-30T07:57:16.631Z,80.90
2019-04-30T07:59:50.019Z,80.90
2019-04-30T08:02:21.624Z,80.90
2019-04-30T08:05:05.950Z,80.70
2019-04-30T08:07:39.050Z,80.90
2019-04-30T08:10:13.152Z,80.80
2019-04-30T08:12:50.518Z,80.80
2019-04-30T08:15:23.712Z,81.00
2019-04-30T08:18:03.461Z,81.10
2019-04-30T08:20:29.594Z,81.00
2019-04-30T08:23:13.393Z,81.40
2019-04-30T08:25:35.101Z,81.10
2019-04-30T08:28:09.146Z,81.10
2019-04-30T08:30:42.714Z,81.00
2019-04-30T08:33:16.829Z,81.10
2019-04-30T08:35:51.620Z,81.10
2019-04-30T08:38:25.233Z,81.00
2019-04-30T08:40:59.668Z,81.10
2019-04-30T08:43:42.592Z,81.40
2019-04-30T08:46:28.712Z,81.60
2019-04-30T08:49:09.537Z,81.60
2019-04-30T08:51:43.703Z,82.00
2019-04-30T08:54:19.837Z,82.00
2019-04-30T08:56:56.969Z,81.70
2019-04-30T08:59:29.483Z,81.70
2019-04-30T09:02:15.132Z,81.50
2019-04-30T09:04:44.400Z,81.50
2019-04-30T09:07:23.250Z,81.30
2019-04-30T09:09:58.497Z,81.60
2019-04-30T09:12:32.128Z,81.40
2019-04-30T09:15:04.094Z,81.10
2019-04-30T09:17:38.568Z,80.90
2019-04-30T09:20:09.121Z,80.90
2019-04-30T09:22:41.971Z,81.20
2019-04-30T09:25:13.879Z,81.30
2019-04-30T09:27:50.958Z,81.10
2019-04-30T09:30:29.793Z,81.10
2019-04-30T09:33:02.210Z,80.90
2019-04-30T09:35:59.510Z,80.90
2019-04-30T09:38:36.636Z,80.90
2019-04-30T09:41:12.076Z,81.10
2019-04-30T09:43:43.762Z,81.30
2019-04-30T09:46:24.570Z,81.60
2019-04-30T09:48:47.776Z,81.70
2019-04-30T09:51:20.610Z,81.70
2019-04-30T09:53:59.049Z,82.20
2019-04-30T09:56:29.455Z,82.20
2019-04-30T09:58:59.927Z,82.30
2019-04-30T10:01:33.316Z,82.10
2019-04-30T10:04:35.550Z,82.50
2019-04-30T10:07:24.692Z,82.80
2019-04-30T10:10:04.021Z,82.60
2019-04-30T10:12:36.081Z,82.70
2019-04-30T10:15:13.284Z,82.80
2019-04-30T10:17:52.275Z,82.80
2019-04-30T10:20:39.064Z,82.60
2019-04-30T10:23:12.728Z,82.40
2019-04-30T10:25:48.586Z,82.60
2019-04-30T10:28:23.336Z,82.40
2019-04-30T10:30:54.947Z,82.50
2019-04-30T10:33:28.665Z,82.60
2019-04-30T10:36:00.478Z,82.60
2019-04-30T10:38:32.355Z,82.40
2019-04-30T10:41:09.106Z,82.20
2019-04-30T10:43:49.154Z,82.00
2019-04-30T10:46:22.400Z,82.20
2019-04-30T10:48:56.510Z,82.30
2019-04-30T10:51:28.851Z,82.20
2019-04-30T10:54:04.186Z,82.30
2019-04-30T10:56:38.167Z,82.00
2019-04-30T10:59:10.993Z,82.10
2019-04-30T11:01:43.664Z,81.70
2019-04-30T11:04:18.854Z,81.90
2019-04-30T11:06:50.428Z,81.80
2019-04-30T11:09:33.598Z,82.10
2019-04-30T11:13:29.131Z,81.80
2019-04-30T11:15:56.030Z,81.70
2019-04-30T11:18:32.190Z,81.50
2019-04-30T11:21:04.360Z,81.60
2019-04-30T11:23:39.815Z,81.00
2019-04-30T11:26:15.085Z,80.70
2019-04-30T11:28:47.746Z,80.40
2019-04-30T11:31:40.680Z,80.20
2019-04-30T11:34:13.866Z,79.70
2019-04-30T11:36:46.181Z,79.20
2019-04-30T11:39:21.671Z,78.40
2019-04-30T11:41:58.477Z,78.20
2019-04-30T11:44:32.706Z,78.00
2019-04-30T11:47:19.988Z,78.10
2019-04-30T11:49:54.942Z,77.30
2019-04-30T11:52:33.633Z,76.10
2019-04-30T11:55:06.154Z,77.20
2019-04-30T11:57:39.841Z,76.80
2019-04-30T12:00:18.695Z,76.50
2019-04-30T12:02:53.101Z,76.00
2019-04-30T12:05:25.729Z,75.10
2019-04-30T12:08:20.290Z,75.30
2019-04-30T12:11:01.588Z,74.00
2019-04-30T12:13:36.723Z,73.50
2019-04-30T12:16:08.937Z,72.40
2019-04-30T12:18:40.879Z,71.70
2019-04-30T12:21:18.443Z,71.30
2019-04-30T12:23:52.288Z,70.50
2019-04-30T12:26:32.545Z,69.80
2019-04-30T12:29:19.248Z,69.60
2019-04-30T12:32:05.805Z,69.40
2019-04-30T12:34:44.343Z,70.10
2019-04-30T12:37:19.123Z,70.10
2019-04-30T12:39:50.991Z,71.10
2019-04-30T12:42:23.624Z,68.60
2019-04-30T12:45:01.124Z,67.40
2019-04-30T12:47:40.808Z,66.80
2019-04-30T12:50:45.679Z,66.50
2019-04-30T12:53:31.152Z,66.30
2019-04-30T12:56:13.690Z,66.40
2019-04-30T12:58:45.402Z,66.30
2019-04-30T13:01:17.288Z,66.60
2019-04-30T13:03:58.037Z,66.50
2019-04-30T13:06:22.352Z,66.50
2019-04-30T13:08:54.770Z,66.20
2019-04-30T13:11:27.207Z,65.80
2019-04-30T13:14:00.184Z,65.20
2019-04-30T13:16:31.836Z,65.00
2019-04-30T13:19:03.119Z,64.90
2019-04-30T13:21:34.867Z,64.70
2019-04-30T13:24:07.017Z,65.00
2019-04-30T13:26:39.687Z,64.40
2019-04-30T13:29:16.915Z,64.10
2019-04-30T13:31:50.306Z,63.30
2019-04-30T13:34:56.137Z,62.70
2019-04-30T13:37:38.870Z,62.20
2019-04-30T13:40:29.250Z,62.20
2019-04-30T13:43:00.987Z,61.90
2019-04-30T13:45:32.288Z,61.70
2019-04-30T13:48:03.566Z,60.90
2019-04-30T13:50:35.880Z,60.30
2019-04-30T13:53:08.895Z,60.70
2019-04-30T13:55:45.700Z,59.70
2019-04-30T13:58:13.364Z,59.40
2019-04-30T14:00:44.756Z,59.10
2019-04-30T14:03:32.267Z,58.90
2019-04-30T14:06:03.786Z,58.50
2019-04-30T14:08:40.233Z,58.30
2019-04-30T14:11:12.045Z,58.70
2019-04-30T14:13:43.261Z,57.50
2019-04-30T14:16:18.794Z,57.60
2019-04-30T14:18:52.121Z,57.10
2019-04-30T14:21:33.185Z,56.80
2019-04-30T14:23:55.530Z,57.00
2019-04-30T14:26:29.100Z,57.90
2019-04-30T14:29:02.382Z,57.30
2019-04-30T14:31:33.587Z,57.00
2019-04-30T14:34:04.927Z,57.00
2019-04-30T14:36:39.106Z,56.80
2019-04-30T14:39:16.932Z,56.80
2019-04-30T14:41:44.178Z,56.70
2019-04-30T14:44:21.230Z,56.70
2019-04-30T14:47:20.391Z,56.50
2019-04-30T14:50:16.148Z,56.90
2019-04-30T14:53:08.442Z,56.30
2019-04-30T14:55:49.634Z,56.90
2019-04-30T14:58:39.369Z,56.60
2019-04-30T15:01:25.601Z,57.40
2019-04-30T15:03:56.860Z,56.50
2019-04-30T15:06:28.450Z,56.50
2019-04-30T15:09:00.276Z,56.60
2019-04-30T15:11:32.059Z,56.60
2019-04-30T15:14:04.481Z,56.70
2019-04-30T15:16:35.720Z,57.60
2019-04-30T15:19:06.993Z,56.80
2019-04-30T15:21:38.203Z,56.80
2019-04-30T15:24:21.190Z,56.90
2019-04-30T15:26:57.699Z,56.50
2019-04-30T15:29:25.034Z,56.60
2019-04-30T15:31:56.074Z,57.10
2019-04-30T15:34:29.349Z,56.40
2019-04-30T15:37:00.440Z,56.30
2019-04-30T15:39:36.763Z,56.90
2019-04-30T15:42:09.519Z,56.30
2019-04-30T15:44:45.483Z,55.90
2019-04-30T15:47:15.286Z,55.90
2019-04-30T15:49:46.694Z,55.90
2019-04-30T15:52:18.929Z,55.90
2019-04-30T15:54:51.585Z,55.60
2019-04-30T15:57:23.233Z,55.30
2019-04-30T15:59:57.676Z,55.20
2019-04-30T16:02:40.257Z,55.30
2019-04-30T16:05:31.326Z,55.20
2019-04-30T16:08:29.077Z,55.10
2019-04-30T16:11:13.876Z,55.00
2019-04-30T16:14:19.340Z,55.00
2019-04-30T16:17:04.331Z,54.90
2019-04-30T16:19:36.099Z,55.50
2019-04-30T16:22:07.841Z,55.20
2019-04-30T16:24:39.597Z,55.00
2019-04-30T16:27:11.274Z,54.90
2019-04-30T16:29:43.686Z,55.00
2019-04-30T16:32:16.445Z,55.40
2019-04-30T16:34:49.436Z,55.50
2019-04-30T16:37:20.910Z,55.50
2019-04-30T16:39:53.166Z,55.80
2019-04-30T16:42:24.651Z,55.70
2019-04-30T16:45:00.587Z,55.60
2019-04-30T16:47:30.206Z,55.50
2019-04-30T16:50:01.686Z,55.20
2019-04-30T16:52:33.301Z,55.60
2019-04-30T16:55:05.760Z,55.90
2019-04-30T16:57:39.696Z,55.70
2019-04-30T17:00:13.690Z,55.60
2019-04-30T17:02:49.411Z,55.60
2019-04-30T17:05:26.288Z,55.40
2019-04-30T17:08:05.559Z,55.30
2019-04-30T17:10:55.824Z,55.10
2019-04-30T17:13:33.742Z,55.10
2019-04-30T17:16:16.814Z,54.90
2019-04-30T17:18:50.194Z,54.70
2019-04-30T17:21:21.593Z,54.80
2019-04-30T17:23:53.075Z,54.70
2019-04-30T17:26:24.807Z,54.70
2019-04-30T17:28:56.976Z,54.70
2019-04-30T17:31:28.284Z,54.60
2019-04-30T17:33:59.671Z,55.40
2019-04-30T17:36:31.346Z,55.10
2019-04-30T17:39:02.730Z,54.90
2019-04-30T17:41:35.697Z,55.60
2019-04-30T17:44:08.893Z,55.70
2019-04-30T17:46:40.324Z,55.30
2019-04-30T17:49:12.532Z,55.50
2019-04-30T17:51:43.985Z,55.20
2019-04-30T17:54:15.731Z,55.40
2019-04-30T17:56:47.530Z,56.00
2019-04-30T17:59:18.965Z,55.90
2019-04-30T18:02:00.511Z,56.70
2019-04-30T18:04:31.957Z,56.70
2019-04-30T18:07:04.859Z,56.80
2019-04-30T18:09:38.837Z,57.50
2019-04-30T18:12:10.146Z,57.50
2019-04-30T18:14:41.992Z,57.50
2019-04-30T18:17:13.790Z,57.60
2019-04-30T18:20:03.407Z,58.00
2019-04-30T18:22:53.042Z,58.10
2019-04-30T18:25:36.472Z,58.20
2019-04-30T18:28:09.143Z,58.40
2019-04-30T18:30:41.197Z,58.90
2019-04-30T18:33:13.353Z,58.80
2019-04-30T18:35:45.230Z,59.50
2019-04-30T18:38:17.822Z,59.70
2019-04-30T18:40:50.881Z,59.60
2019-04-30T18:43:22.626Z,60.00
2019-04-30T18:45:54.447Z,60.40
2019-04-30T18:48:25.866Z,60.60
2019-04-30T18:50:57.997Z,61.40
2019-04-30T18:53:34.482Z,61.10
2019-04-30T18:56:09.950Z,60.80
2019-04-30T18:58:42.773Z,61.10
2019-04-30T19:01:13.432Z,61.20
2019-04-30T19:03:45.239Z,61.10
2019-04-30T19:06:25.761Z,61.30
2019-04-30T19:09:02.379Z,61.40
2019-04-30T19:11:44.944Z,61.40
2019-04-30T19:14:39.529Z,61.70
2019-04-30T19:17:29.574Z,61.60
2019-04-30T19:20:20.785Z,61.60
2019-04-30T19:22:52.165Z,61.80
2019-04-30T19:25:23.888Z,62.50
2019-04-30T19:27:55.204Z,62.20
2019-04-30T19:30:29.268Z,62.10
2019-04-30T19:33:00.712Z,62.40
2019-04-30T19:35:33.586Z,62.80
2019-04-30T19:38:05.343Z,63.30
2019-04-30T19:40:39.151Z,62.90
2019-04-30T19:43:11.015Z,62.70
2019-04-30T19:45:42.852Z,62.80
2019-04-30T19:48:16.196Z,62.90
2019-04-30T19:50:49.010Z,63.10
2019-04-30T19:53:22.386Z,63.00
2019-04-30T19:55:53.694Z,63.50
2019-04-30T19:58:37.974Z,63.70
2019-04-30T20:00:59.494Z,63.50
2019-04-30T20:03:31.628Z,63.60
2019-04-30T20:06:03.887Z,64.40
2019-04-30T20:08:36.177Z,63.60
2019-04-30T20:11:08.742Z,64.10
2019-04-30T20:13:40.924Z,64.40
2019-04-30T20:16:12.279Z,64.40
2019-04-30T20:18:43.631Z,64.60
2019-04-30T20:21:26.215Z,64.40
2019-04-30T20:23:51.837Z,64.40
2019-04-30T20:26:23.294Z,64.40
2019-04-30T20:28:55.089Z,65.00
2019-04-30T20:31:28.637Z,64.80
2019-04-30T20:34:01.485Z,64.80
2019-04-30T20:36:33.700Z,64.60
2019-04-30T20:39:25.621Z,64.80
2019-04-30T20:41:57.871Z,65.30
2019-04-30T20:44:29.654Z,65.20
2019-04-30T20:47:01.391Z,65.20
2019-04-30T20:49:33.054Z,65.00
2019-04-30T20:52:04.919Z,65.00
2019-04-30T20:54:36.345Z,64.90
2019-04-30T20:57:08.739Z,65.30
2019-04-30T20:59:40.239Z,65.40
2019-04-30T21:02:12.787Z,65.90
2019-04-30T21:04:44.517Z,65.60
2019-04-30T21:07:15.848Z,65.50
2019-04-30T21:09:47.773Z,65.50
2019-04-30T21:12:19.017Z,66.00
2019-04-30T21:14:51.042Z,65.90
2019-04-30T21:17:22.582Z,65.90
2019-04-30T21:19:54.545Z,66.20
2019-04-30T21:22:25.908Z,66.00
2019-04-30T21:25:00.331Z,66.50
2019-04-30T21:27:30.405Z,66.50
2019-04-30T21:30:02.398Z,66.50
2019-04-30T21:33:10.907Z,66.10
2019-04-30T21:35:48.612Z,66.00
2019-04-30T21:38:21.783Z,66.10
2019-04-30T21:40:53.513Z,67.30
2019-04-30T21:43:25.718Z,66.60
2019-04-30T21:45:57.000Z,66.30
2019-04-30T21:48:28.974Z,66.90
2019-04-30T21:51:00.290Z,66.80
2019-04-30T21:53:31.999Z,66.40
2019-04-30T21:56:03.279Z,66.30
2019-04-30T21:58:34.519Z,66.40
2019-04-30T22:01:27.174Z,66.20
2019-04-30T22:03:59.556Z,66.60
2019-04-30T22:06:31.173Z,66.90
2019-04-30T22:09:02.560Z,66.40
2019-04-30T22:11:35.449Z,66.00
2019-04-30T22:14:07.213Z,66.70
2019-04-30T22:16:39.773Z,66.20
2019-04-30T22:19:11.733Z,65.80
2019-04-30T22:21:43.280Z,66.20
2019-04-30T22:24:14.499Z,65.80
2019-04-30T22:26:45.834Z,65.70
2019-04-30T22:29:19.163Z,65.60
2019-04-30T22:31:49.552Z,65.60
2019-04-30T22:34:20.957Z,66.20
2019-04-30T22:36:52.542Z,67.00
2019-04-30T22:39:42.683Z,66.90
2019-04-30T22:42:31.216Z,66.30
2019-04-30T22:45:03.945Z,66.50
2019-04-30T22:47:35.671Z,66.40
2019-04-30T22:50:08.463Z,66.30
2019-04-30T22:52:40.002Z,66.00
2019-04-30T22:55:11.946Z,66.90
2019-04-30T22:57:43.827Z,66.40
2019-04-30T23:00:22.950Z,66.40
2019-04-30T23:03:00.412Z,66.60
2019-04-30T23:05:31.802Z,66.70
2019-04-30T23:08:03.202Z,67.10
2019-04-30T23:10:34.833Z,67.20
2019-04-30T23:13:06.149Z,66.70
2019-04-30T23:15:38.032Z,67.10
2019-04-30T23:18:09.379Z,67.10
2019-04-30T23:20:40.675Z,66.90
2019-04-30T23:23:12.203Z,66.70
2019-04-30T23:25:45.304Z,66.70
2019-04-30T23:28:17.523Z,66.50
2019-04-30T23:30:48.751Z,66.70
2019-04-30T23:33:20.276Z,67.10
2019-04-30T23:35:51.904Z,66.70
2019-04-30T23:38:23.497Z,66.60
2019-04-30T23:40:54.818Z,66.50
2019-04-30T23:43:27.290Z,66.60
2019-04-30T23:45:58.587Z,66.30
2019-04-30T23:48:30.179Z,66.40
2019-04-30T23:51:01.717Z,66.10
2019-04-30T23:53:33.847Z,66.00
2019-04-30T23:56:05.541Z,66.10
2019-04-30T23:58:37.155Z,66.50
